sensor_id;sensor_type;location;lat;lon;timestamp;pressure;altitude;pressure_sealevel;temperature;humidity
24160;BME280;62385;41.594;23.808;2024-01-15T00:02:09;95127.97;;;-3.87;72.42
24160;BME280;62385;41.594;23.808;2024-01-15T00:04:40;95146.13;;;-3.87;73.05
24160;BME280;62385;41.594;23.808;2024-01-15T00:07:07;95140.72;;;-3.84;73.09
24160;BME280;62385;41.594;23.808;2024-01-15T00:09:32;95092.38;;;-3.70;72.39
24160;BME280;62385;41.594;23.808;2024-01-15T00:11:59;95131.31;;;-3.30;72.05
24160;BME280;62385;41.594;23.808;2024-01-15T00:14:25;95132.72;;;-3.38;72.08
24160;BME280;62385;41.594;23.808;2024-01-15T00:16:50;95117.84;;;-3.22;71.63
24160;BME280;62385;41.594;23.808;2024-01-15T00:19:37;95125.13;;;-3.14;70.63
24160;BME280;62385;41.594;23.808;2024-01-15T00:22:02;95130.78;;;-3.49;72.02
24160;BME280;62385;41.594;23.808;2024-01-15T00:24:28;95134.44;;;-3.65;72.54
24160;BME280;62385;41.594;23.808;2024-01-15T00:26:53;95130.88;;;-3.36;71.73
24160;BME280;62385;41.594;23.808;2024-01-15T00:29:19;95122.38;;;-3.66;72.49
24160;BME280;62385;41.594;23.808;2024-01-15T00:31:44;95128.44;;;-3.39;71.79
24160;BME280;62385;41.594;23.808;2024-01-15T00:34:10;95134.50;;;-3.67;72.14
24160;BME280;62385;41.594;23.808;2024-01-15T00:36:36;95116.69;;;-3.86;72.13
24160;BME280;62385;41.594;23.808;2024-01-15T00:39:01;95126.25;;;-3.45;71.79
24160;BME280;62385;41.594;23.808;2024-01-15T00:41:27;95137.19;;;-3.68;72.45
24160;BME280;62385;41.594;23.808;2024-01-15T00:43:53;95133.69;;;-3.53;71.95
24160;BME280;62385;41.594;23.808;2024-01-15T00:46:19;95140.78;;;-3.43;71.12
24160;BME280;62385;41.594;23.808;2024-01-15T00:48:44;95140.72;;;-3.84;71.98
24160;BME280;62385;41.594;23.808;2024-01-15T00:51:10;95123.25;;;-3.94;72.81
24160;BME280;62385;41.594;23.808;2024-01-15T00:53:35;95127.03;;;-3.86;73.29
24160;BME280;62385;41.594;23.808;2024-01-15T00:56:02;95119.34;;;-3.87;73.06
24160;BME280;62385;41.594;23.808;2024-01-15T00:58:28;95119.19;;;-3.43;73.17
24160;BME280;62385;41.594;23.808;2024-01-15T01:00:54;95123.28;;;-3.53;72.70
24160;BME280;62385;41.594;23.808;2024-01-15T01:03:20;95133.88;;;-3.56;72.91
24160;BME280;62385;41.594;23.808;2024-01-15T01:05:48;95128.34;;;-3.38;72.98
24160;BME280;62385;41.594;23.808;2024-01-15T01:08:15;95115.84;;;-3.04;72.23
24160;BME280;62385;41.594;23.808;2024-01-15T01:10:40;95123.97;;;-2.96;71.67
24160;BME280;62385;41.594;23.808;2024-01-15T01:13:08;95123.25;;;-2.98;71.52
24160;BME280;62385;41.594;23.808;2024-01-15T01:15:34;95114.66;;;-3.40;73.14
24160;BME280;62385;41.594;23.808;2024-01-15T01:17:59;95113.41;;;-3.34;73.07
24160;BME280;62385;41.594;23.808;2024-01-15T01:20:25;95114.25;;;-3.34;73.74
24160;BME280;62385;41.594;23.808;2024-01-15T01:22:50;95105.00;;;-3.38;74.07
24160;BME280;62385;41.594;23.808;2024-01-15T01:25:16;95102.84;;;-3.31;74.07
24160;BME280;62385;41.594;23.808;2024-01-15T01:27:41;95087.94;;;-3.28;72.56
24160;BME280;62385;41.594;23.808;2024-01-15T01:30:08;95104.38;;;-3.55;72.16
24160;BME280;62385;41.594;23.808;2024-01-15T01:32:33;95105.97;;;-3.26;71.59
24160;BME280;62385;41.594;23.808;2024-01-15T01:34:59;95101.09;;;-3.04;70.84
24160;BME280;62385;41.594;23.808;2024-01-15T01:37:25;95102.25;;;-3.22;72.20
24160;BME280;62385;41.594;23.808;2024-01-15T01:39:51;95069.41;;;-3.77;75.11
24160;BME280;62385;41.594;23.808;2024-01-15T01:42:16;95067.25;;;-3.29;73.34
24160;BME280;62385;41.594;23.808;2024-01-15T01:44:42;95092.19;;;-3.00;72.35
24160;BME280;62385;41.594;23.808;2024-01-15T01:47:08;95112.53;;;-3.47;73.36
24160;BME280;62385;41.594;23.808;2024-01-15T01:49:34;95112.69;;;-3.77;73.09
24160;BME280;62385;41.594;23.808;2024-01-15T01:52:02;95111.00;;;-3.78;72.82
24160;BME280;62385;41.594;23.808;2024-01-15T01:54:32;95107.56;;;-3.93;73.40
24160;BME280;62385;41.594;23.808;2024-01-15T01:56:59;95110.28;;;-3.94;73.23
24160;BME280;62385;41.594;23.808;2024-01-15T01:59:28;95115.56;;;-3.82;72.86
24160;BME280;62385;41.594;23.808;2024-01-15T02:01:55;95107.56;;;-3.93;72.25
24160;BME280;62385;41.594;23.808;2024-01-15T02:04:23;95089.25;;;-4.32;73.15
24160;BME280;62385;41.594;23.808;2024-01-15T02:06:50;95086.03;;;-4.36;74.02
24160;BME280;62385;41.594;23.808;2024-01-15T02:09:17;95067.44;;;-4.28;74.39
24160;BME280;62385;41.594;23.808;2024-01-15T02:11:43;95097.03;;;-4.04;73.83
24160;BME280;62385;41.594;23.808;2024-01-15T02:14:09;95024.66;;;-4.21;73.90
24160;BME280;62385;41.594;23.808;2024-01-15T02:16:35;95045.47;;;-3.53;72.16
24160;BME280;62385;41.594;23.808;2024-01-15T02:19:01;95037.97;;;-3.58;71.22
24160;BME280;62385;41.594;23.808;2024-01-15T02:21:27;95085.38;;;-3.15;71.24
24160;BME280;62385;41.594;23.808;2024-01-15T02:23:55;95033.16;;;-3.64;71.52
24160;BME280;62385;41.594;23.808;2024-01-15T02:26:21;95084.66;;;-3.58;72.14
24160;BME280;62385;41.594;23.808;2024-01-15T02:28:48;95057.31;;;-4.04;72.41
24160;BME280;62385;41.594;23.808;2024-01-15T02:31:14;95091.94;;;-4.05;74.00
24160;BME280;62385;41.594;23.808;2024-01-15T02:33:39;95086.31;;;-3.98;73.40
24160;BME280;62385;41.594;23.808;2024-01-15T02:36:05;95052.78;;;-3.87;73.14
24160;BME280;62385;41.594;23.808;2024-01-15T02:38:31;95092.78;;;-3.36;71.50
24160;BME280;62385;41.594;23.808;2024-01-15T02:40:57;95092.50;;;-3.18;71.59
24160;BME280;62385;41.594;23.808;2024-01-15T02:43:22;95037.00;;;-3.69;70.96
24160;BME280;62385;41.594;23.808;2024-01-15T02:45:48;95036.88;;;-4.09;72.09
24160;BME280;62385;41.594;23.808;2024-01-15T02:48:14;95049.94;;;-4.10;72.04
24160;BME280;62385;41.594;23.808;2024-01-15T02:50:39;95079.81;;;-4.05;73.01
24160;BME280;62385;41.594;23.808;2024-01-15T02:53:05;95067.25;;;-4.11;72.94
24160;BME280;62385;41.594;23.808;2024-01-15T02:55:31;95076.94;;;-4.00;72.74
24160;BME280;62385;41.594;23.808;2024-01-15T02:57:56;95073.63;;;-3.20;71.05
24160;BME280;62385;41.594;23.808;2024-01-15T03:00:22;95055.38;;;-3.19;70.73
24160;BME280;62385;41.594;23.808;2024-01-15T03:02:50;95069.28;;;-3.20;70.94
24160;BME280;62385;41.594;23.808;2024-01-15T03:05:16;95069.03;;;-3.56;71.28
24160;BME280;62385;41.594;23.808;2024-01-15T03:07:42;95040.75;;;-4.30;72.37
24160;BME280;62385;41.594;23.808;2024-01-15T03:10:08;95072.59;;;-4.42;73.15
24160;BME280;62385;41.594;23.808;2024-01-15T03:12:34;95070.72;;;-4.69;73.23
24160;BME280;62385;41.594;23.808;2024-01-15T03:14:59;95053.19;;;-4.35;73.52
24160;BME280;62385;41.594;23.808;2024-01-15T03:17:25;95040.19;;;-4.63;74.24
24160;BME280;62385;41.594;23.808;2024-01-15T03:19:50;95050.84;;;-4.54;74.05
24160;BME280;62385;41.594;23.808;2024-01-15T03:22:17;95059.28;;;-4.36;74.08
24160;BME280;62385;41.594;23.808;2024-01-15T03:24:43;95058.25;;;-4.05;73.25
24160;BME280;62385;41.594;23.808;2024-01-15T03:27:09;95027.72;;;-4.57;73.66
24160;BME280;62385;41.594;23.808;2024-01-15T03:29:34;95050.31;;;-4.45;73.40
24160;BME280;62385;41.594;23.808;2024-01-15T03:32:00;95062.78;;;-4.37;73.90
24160;BME280;62385;41.594;23.808;2024-01-15T03:34:26;95044.25;;;-4.59;73.29
24160;BME280;62385;41.594;23.808;2024-01-15T03:36:51;95056.41;;;-4.60;74.09
24160;BME280;62385;41.594;23.808;2024-01-15T03:39:17;95040.19;;;-4.78;73.94
24160;BME280;62385;41.594;23.808;2024-01-15T03:41:42;95068.63;;;-4.48;74.01
24160;BME280;62385;41.594;23.808;2024-01-15T03:44:08;95053.63;;;-4.29;74.29
24160;BME280;62385;41.594;23.808;2024-01-15T03:46:34;95022.38;;;-4.40;73.35
24160;BME280;62385;41.594;23.808;2024-01-15T03:48:59;95012.47;;;-4.33;73.24
24160;BME280;62385;41.594;23.808;2024-01-15T03:51:25;95019.41;;;-4.48;73.90
24160;BME280;62385;41.594;23.808;2024-01-15T03:53:50;95023.47;;;-4.44;73.46
24160;BME280;62385;41.594;23.808;2024-01-15T03:56:16;95007.28;;;-4.19;72.23
24160;BME280;62385;41.594;23.808;2024-01-15T03:58:42;95045.97;;;-3.75;71.18
24160;BME280;62385;41.594;23.808;2024-01-15T04:01:09;95050.81;;;-3.69;70.91
24160;BME280;62385;41.594;23.808;2024-01-15T04:03:35;94996.66;;;-3.88;71.69
24160;BME280;62385;41.594;23.808;2024-01-15T04:06:01;95035.75;;;-3.91;71.48
24160;BME280;62385;41.594;23.808;2024-01-15T04:08:27;95053.16;;;-4.07;71.86
24160;BME280;62385;41.594;23.808;2024-01-15T04:10:52;95043.63;;;-4.06;72.33
24160;BME280;62385;41.594;23.808;2024-01-15T04:13:18;95042.94;;;-3.82;71.88
24160;BME280;62385;41.594;23.808;2024-01-15T04:15:43;95022.38;;;-3.85;72.04
24160;BME280;62385;41.594;23.808;2024-01-15T04:18:09;95056.28;;;-3.74;72.04
24160;BME280;62385;41.594;23.808;2024-01-15T04:20:35;95026.56;;;-3.82;73.67
24160;BME280;62385;41.594;23.808;2024-01-15T04:23:00;95036.50;;;-3.62;72.76
24160;BME280;62385;41.594;23.808;2024-01-15T04:25:26;95056.25;;;-3.33;72.27
24160;BME280;62385;41.594;23.808;2024-01-15T04:27:51;95068.66;;;-3.38;72.76
24160;BME280;62385;41.594;23.808;2024-01-15T04:30:17;95067.63;;;-3.62;72.65
24160;BME280;62385;41.594;23.808;2024-01-15T04:32:43;95064.75;;;-3.98;73.45
24160;BME280;62385;41.594;23.808;2024-01-15T04:35:08;95039.81;;;-3.87;73.17
24160;BME280;62385;41.594;23.808;2024-01-15T04:37:34;95045.13;;;-3.61;72.34
24160;BME280;62385;41.594;23.808;2024-01-15T04:40:00;95034.41;;;-3.69;72.77
24160;BME280;62385;41.594;23.808;2024-01-15T04:42:26;95008.91;;;-3.90;73.34
24160;BME280;62385;41.594;23.808;2024-01-15T04:44:51;95050.31;;;-3.61;73.08
24160;BME280;62385;41.594;23.808;2024-01-15T04:47:17;95054.53;;;-3.87;74.18
24160;BME280;62385;41.594;23.808;2024-01-15T04:49:43;95050.13;;;-3.73;74.11
24160;BME280;62385;41.594;23.808;2024-01-15T04:52:08;95037.41;;;-3.49;73.33
24160;BME280;62385;41.594;23.808;2024-01-15T04:54:36;95010.38;;;-3.59;72.23
24160;BME280;62385;41.594;23.808;2024-01-15T04:57:02;95043.47;;;-3.36;72.16
24160;BME280;62385;41.594;23.808;2024-01-15T04:59:28;95037.44;;;-3.36;72.24
24160;BME280;62385;41.594;23.808;2024-01-15T05:01:54;95007.78;;;-3.86;73.39
24160;BME280;62385;41.594;23.808;2024-01-15T05:04:20;95042.41;;;-3.60;72.85
24160;BME280;62385;41.594;23.808;2024-01-15T05:06:46;95016.53;;;-3.47;72.30
24160;BME280;62385;41.594;23.808;2024-01-15T05:09:12;95044.03;;;-3.18;72.07
24160;BME280;62385;41.594;23.808;2024-01-15T05:11:39;95017.56;;;-3.50;71.95
24160;BME280;62385;41.594;23.808;2024-01-15T05:14:05;95050.19;;;-3.06;71.70
24160;BME280;62385;41.594;23.808;2024-01-15T05:16:31;95056.00;;;-3.15;71.82
24160;BME280;62385;41.594;23.808;2024-01-15T05:18:57;95031.00;;;-3.84;72.83
24160;BME280;62385;41.594;23.808;2024-01-15T05:21:23;95054.28;;;-4.11;74.38
24160;BME280;62385;41.594;23.808;2024-01-15T05:23:48;94979.22;;;-4.12;73.94
24160;BME280;62385;41.594;23.808;2024-01-15T05:26:14;95016.81;;;-3.79;72.82
24160;BME280;62385;41.594;23.808;2024-01-15T05:28:43;95003.56;;;-3.74;72.87
24160;BME280;62385;41.594;23.808;2024-01-15T05:31:09;95035.41;;;-3.18;71.88
24160;BME280;62385;41.594;23.808;2024-01-15T05:33:35;95031.00;;;-3.04;71.81
24160;BME280;62385;41.594;23.808;2024-01-15T05:36:00;95020.16;;;-3.10;72.06
24160;BME280;62385;41.594;23.808;2024-01-15T05:38:27;94996.69;;;-3.21;71.70
24160;BME280;62385;41.594;23.808;2024-01-15T05:40:54;95029.13;;;-3.02;71.98
24160;BME280;62385;41.594;23.808;2024-01-15T05:43:20;95034.88;;;-2.84;71.07
24160;BME280;62385;41.594;23.808;2024-01-15T05:45:45;94992.09;;;-3.31;72.10
24160;BME280;62385;41.594;23.808;2024-01-15T05:48:12;95015.25;;;-3.28;72.47
24160;BME280;62385;41.594;23.808;2024-01-15T05:50:38;95039.25;;;-3.51;73.33
24160;BME280;62385;41.594;23.808;2024-01-15T05:53:03;94982.13;;;-3.63;73.76
24160;BME280;62385;41.594;23.808;2024-01-15T05:55:29;94971.78;;;-4.04;73.22
24160;BME280;62385;41.594;23.808;2024-01-15T05:57:55;95013.22;;;-3.49;74.21
24160;BME280;62385;41.594;23.808;2024-01-15T06:00:21;94993.03;;;-3.58;72.73
24160;BME280;62385;41.594;23.808;2024-01-15T06:02:46;94987.66;;;-3.16;72.79
24160;BME280;62385;41.594;23.808;2024-01-15T06:05:12;94997.78;;;-2.99;71.82
24160;BME280;62385;41.594;23.808;2024-01-15T06:07:38;95018.34;;;-2.83;72.06
24160;BME280;62385;41.594;23.808;2024-01-15T06:10:04;94990.59;;;-2.95;71.83
24160;BME280;62385;41.594;23.808;2024-01-15T06:12:30;94992.31;;;-3.21;72.80
24160;BME280;62385;41.594;23.808;2024-01-15T06:14:56;94997.56;;;-3.35;73.71
24160;BME280;62385;41.594;23.808;2024-01-15T06:17:22;94978.63;;;-3.10;72.92
24160;BME280;62385;41.594;23.808;2024-01-15T06:19:48;95009.53;;;-2.55;71.71
24160;BME280;62385;41.594;23.808;2024-01-15T06:22:13;94998.84;;;-2.63;72.03
24160;BME280;62385;41.594;23.808;2024-01-15T06:24:39;95004.66;;;-2.47;71.94
24160;BME280;62385;41.594;23.808;2024-01-15T06:27:05;95012.13;;;-2.81;72.57
24160;BME280;62385;41.594;23.808;2024-01-15T06:29:31;94961.53;;;-2.88;72.53
24160;BME280;62385;41.594;23.808;2024-01-15T06:31:57;94982.06;;;-3.10;73.18
24160;BME280;62385;41.594;23.808;2024-01-15T06:34:23;95026.25;;;-2.85;72.99
24160;BME280;62385;41.594;23.808;2024-01-15T06:36:48;95029.16;;;-2.76;73.87
24160;BME280;62385;41.594;23.808;2024-01-15T06:39:14;95036.25;;;-2.66;73.15
24160;BME280;62385;41.594;23.808;2024-01-15T06:41:40;95038.75;;;-2.52;72.78
24160;BME280;62385;41.594;23.808;2024-01-15T06:44:12;94986.59;;;-3.26;74.06
24160;BME280;62385;41.594;23.808;2024-01-15T06:46:47;95001.97;;;-3.36;75.78
24160;BME280;62385;41.594;23.808;2024-01-15T06:49:13;94985.22;;;-2.80;73.54
24160;BME280;62385;41.594;23.808;2024-01-15T06:51:39;95017.81;;;-2.88;73.85
24160;BME280;62385;41.594;23.808;2024-01-15T06:54:05;95035.81;;;-2.22;73.06
24160;BME280;62385;41.594;23.808;2024-01-15T06:56:31;95038.22;;;-2.44;73.44
24160;BME280;62385;41.594;23.808;2024-01-15T06:58:57;94996.13;;;-2.24;72.52
24160;BME280;62385;41.594;23.808;2024-01-15T07:01:23;95011.28;;;-2.56;74.14
24160;BME280;62385;41.594;23.808;2024-01-15T07:03:49;94982.50;;;-2.40;72.88
24160;BME280;62385;41.594;23.808;2024-01-15T07:06:14;95056.09;;;-2.27;73.18
24160;BME280;62385;41.594;23.808;2024-01-15T07:08:41;95036.25;;;-2.41;73.62
24160;BME280;62385;41.594;23.808;2024-01-15T07:11:07;95045.28;;;-2.21;72.91
24160;BME280;62385;41.594;23.808;2024-01-15T07:13:33;95034.66;;;-1.93;72.20
24160;BME280;62385;41.594;23.808;2024-01-15T07:15:59;95029.66;;;-1.96;72.24
24160;BME280;62385;41.594;23.808;2024-01-15T07:18:25;95066.88;;;-1.70;71.43
24160;BME280;62385;41.594;23.808;2024-01-15T07:20:51;95050.63;;;-1.73;71.63
24160;BME280;62385;41.594;23.808;2024-01-15T07:23:17;95017.00;;;-2.13;73.42
24160;BME280;62385;41.594;23.808;2024-01-15T07:25:43;95001.56;;;-1.91;72.31
24160;BME280;62385;41.594;23.808;2024-01-15T07:28:09;95025.69;;;-1.52;71.61
24160;BME280;62385;41.594;23.808;2024-01-15T07:30:34;95002.22;;;-1.40;71.34
24160;BME280;62385;41.594;23.808;2024-01-15T07:33:00;94986.69;;;-1.89;71.95
24160;BME280;62385;41.594;23.808;2024-01-15T07:35:26;95020.41;;;-1.16;71.56
24160;BME280;62385;41.594;23.808;2024-01-15T07:37:52;94992.84;;;-1.42;70.88
24160;BME280;62385;41.594;23.808;2024-01-15T07:40:17;95015.84;;;-1.12;71.17
24160;BME280;62385;41.594;23.808;2024-01-15T07:42:43;95005.91;;;-1.31;71.51
24160;BME280;62385;41.594;23.808;2024-01-15T07:45:10;94975.41;;;-1.29;71.12
24160;BME280;62385;41.594;23.808;2024-01-15T07:47:36;95017.34;;;-1.21;71.44
24160;BME280;62385;41.594;23.808;2024-01-15T07:50:02;95015.63;;;-1.09;70.93
24160;BME280;62385;41.594;23.808;2024-01-15T07:52:28;94995.13;;;-1.37;70.98
24160;BME280;62385;41.594;23.808;2024-01-15T07:54:53;95006.91;;;-0.97;70.23
24160;BME280;62385;41.594;23.808;2024-01-15T07:57:20;95026.34;;;-0.90;69.63
24160;BME280;62385;41.594;23.808;2024-01-15T07:59:46;95021.19;;;-0.79;69.95
24160;BME280;62385;41.594;23.808;2024-01-15T08:02:11;95023.69;;;-1.01;69.14
24160;BME280;62385;41.594;23.808;2024-01-15T08:04:37;95004.72;;;-0.68;68.55
24160;BME280;62385;41.594;23.808;2024-01-15T08:07:06;94982.22;;;-0.69;67.92
24160;BME280;62385;41.594;23.808;2024-01-15T08:09:33;94983.03;;;-0.69;68.18
24160;BME280;62385;41.594;23.808;2024-01-15T08:11:59;95025.66;;;-0.35;69.08
24160;BME280;62385;41.594;23.808;2024-01-15T08:14:28;95018.66;;;-0.23;69.02
24160;BME280;62385;41.594;23.808;2024-01-15T08:16:53;95013.81;;;-0.17;69.72
24160;BME280;62385;41.594;23.808;2024-01-15T08:19:19;95012.84;;;-0.27;69.97
24160;BME280;62385;41.594;23.808;2024-01-15T08:21:47;95000.66;;;-0.26;69.42
24160;BME280;62385;41.594;23.808;2024-01-15T08:24:14;94975.63;;;-0.40;68.12
24160;BME280;62385;41.594;23.808;2024-01-15T08:26:40;95011.31;;;-0.07;68.59
24160;BME280;62385;41.594;23.808;2024-01-15T08:29:06;94996.38;;;-0.16;69.14
24160;BME280;62385;41.594;23.808;2024-01-15T08:31:31;95021.16;;;0.23;69.50
24160;BME280;62385;41.594;23.808;2024-01-15T08:33:57;95000.50;;;-0.25;68.92
24160;BME280;62385;41.594;23.808;2024-01-15T08:36:24;95023.19;;;0.08;68.70
24160;BME280;62385;41.594;23.808;2024-01-15T08:38:50;94971.69;;;0.10;69.14
24160;BME280;62385;41.594;23.808;2024-01-15T08:41:16;94999.91;;;0.27;69.23
24160;BME280;62385;41.594;23.808;2024-01-15T08:43:42;95010.09;;;0.53;69.08
24160;BME280;62385;41.594;23.808;2024-01-15T08:46:07;94993.75;;;0.28;68.70
24160;BME280;62385;41.594;23.808;2024-01-15T08:48:33;94953.94;;;0.04;69.04
24160;BME280;62385;41.594;23.808;2024-01-15T08:50:59;94976.72;;;0.56;69.20
24160;BME280;62385;41.594;23.808;2024-01-15T08:53:24;94988.22;;;0.65;69.99
24160;BME280;62385;41.594;23.808;2024-01-15T08:55:51;94993.53;;;0.63;68.83
24160;BME280;62385;41.594;23.808;2024-01-15T08:58:17;94949.44;;;0.49;68.55
24160;BME280;62385;41.594;23.808;2024-01-15T09:00:43;94966.75;;;0.50;68.76
24160;BME280;62385;41.594;23.808;2024-01-15T09:03:08;94998.97;;;0.71;68.27
24160;BME280;62385;41.594;23.808;2024-01-15T09:05:34;94995.09;;;0.98;68.15
24160;BME280;62385;41.594;23.808;2024-01-15T09:08:00;94989.66;;;0.89;68.48
24160;BME280;62385;41.594;23.808;2024-01-15T09:10:26;94995.50;;;1.34;67.56
24160;BME280;62385;41.594;23.808;2024-01-15T09:12:51;94975.09;;;1.49;67.84
24160;BME280;62385;41.594;23.808;2024-01-15T09:15:17;94918.75;;;1.15;67.76
24160;BME280;62385;41.594;23.808;2024-01-15T09:17:43;94930.88;;;1.16;67.44
24160;BME280;62385;41.594;23.808;2024-01-15T09:20:09;94942.72;;;0.67;67.76
24160;BME280;62385;41.594;23.808;2024-01-15T09:22:37;94945.34;;;0.99;66.76
24160;BME280;62385;41.594;23.808;2024-01-15T09:25:04;94962.22;;;1.57;66.22
24160;BME280;62385;41.594;23.808;2024-01-15T09:27:30;94972.50;;;1.79;66.18
24160;BME280;62385;41.594;23.808;2024-01-15T09:29:56;94951.63;;;1.38;66.67
24160;BME280;62385;41.594;23.808;2024-01-15T09:32:21;94951.63;;;1.17;66.59
24160;BME280;62385;41.594;23.808;2024-01-15T09:34:47;94950.88;;;1.26;67.60
24160;BME280;62385;41.594;23.808;2024-01-15T09:37:14;94945.38;;;1.09;67.71
24160;BME280;62385;41.594;23.808;2024-01-15T09:39:40;94943.09;;;1.15;66.99
24160;BME280;62385;41.594;23.808;2024-01-15T09:42:07;94940.22;;;1.18;66.72
24160;BME280;62385;41.594;23.808;2024-01-15T09:44:33;94887.03;;;1.29;67.59
24160;BME280;62385;41.594;23.808;2024-01-15T09:46:59;94915.13;;;1.57;66.12
24160;BME280;62385;41.594;23.808;2024-01-15T09:49:25;94879.63;;;1.64;65.16
24160;BME280;62385;41.594;23.808;2024-01-15T09:51:51;94910.81;;;1.86;64.83
24160;BME280;62385;41.594;23.808;2024-01-15T09:54:17;94910.03;;;1.96;65.92
24160;BME280;62385;41.594;23.808;2024-01-15T09:56:46;94892.66;;;1.55;66.42
24160;BME280;62385;41.594;23.808;2024-01-15T09:59:19;94877.69;;;1.66;65.82
24160;BME280;62385;41.594;23.808;2024-01-15T10:01:45;94890.19;;;1.93;65.85
24160;BME280;62385;41.594;23.808;2024-01-15T10:04:13;94882.47;;;1.82;65.91
24160;BME280;62385;41.594;23.808;2024-01-15T10:06:39;94857.28;;;1.51;65.48
24160;BME280;62385;41.594;23.808;2024-01-15T10:09:07;94844.59;;;1.46;65.50
24160;BME280;62385;41.594;23.808;2024-01-15T10:11:33;94846.25;;;1.47;65.53
24160;BME280;62385;41.594;23.808;2024-01-15T10:13:59;94858.88;;;1.72;65.72
24160;BME280;62385;41.594;23.808;2024-01-15T10:16:25;94833.16;;;1.77;65.31
24160;BME280;62385;41.594;23.808;2024-01-15T10:18:51;94848.75;;;1.98;65.21
24160;BME280;62385;41.594;23.808;2024-01-15T10:21:17;94826.31;;;2.24;63.81
24160;BME280;62385;41.594;23.808;2024-01-15T10:23:42;94838.44;;;2.45;64.08
24160;BME280;62385;41.594;23.808;2024-01-15T10:26:08;94840.97;;;2.56;63.67
24160;BME280;62385;41.594;23.808;2024-01-15T10:28:34;94831.84;;;2.41;63.09
24160;BME280;62385;41.594;23.808;2024-01-15T10:31:01;94840.81;;;2.67;61.99
24160;BME280;62385;41.594;23.808;2024-01-15T10:33:27;94832.41;;;2.73;61.00
24160;BME280;62385;41.594;23.808;2024-01-15T10:35:54;94796.13;;;2.59;61.99
24160;BME280;62385;41.594;23.808;2024-01-15T10:38:24;94790.34;;;2.46;61.11
24160;BME280;62385;41.594;23.808;2024-01-15T10:40:54;94827.28;;;2.71;61.11
24160;BME280;62385;41.594;23.808;2024-01-15T10:43:20;94832.56;;;2.52;60.28
24160;BME280;62385;41.594;23.808;2024-01-15T10:45:47;94824.50;;;2.92;58.49
24160;BME280;62385;41.594;23.808;2024-01-15T10:48:14;94823.38;;;2.95;59.39
24160;BME280;62385;41.594;23.808;2024-01-15T10:50:41;94781.31;;;2.87;59.61
24160;BME280;62385;41.594;23.808;2024-01-15T10:53:08;94792.22;;;2.92;58.68
24160;BME280;62385;41.594;23.808;2024-01-15T10:55:35;94816.88;;;2.99;58.56
24160;BME280;62385;41.594;23.808;2024-01-15T10:58:03;94822.25;;;3.07;57.95
24160;BME280;62385;41.594;23.808;2024-01-15T11:00:29;94809.81;;;3.18;57.31
24160;BME280;62385;41.594;23.808;2024-01-15T11:02:56;94807.47;;;3.15;57.48
24160;BME280;62385;41.594;23.808;2024-01-15T11:05:22;94804.81;;;3.25;57.62
24160;BME280;62385;41.594;23.808;2024-01-15T11:07:49;94801.78;;;3.30;57.75
24160;BME280;62385;41.594;23.808;2024-01-15T11:13:19;94779.50;;;2.97;58.47
24160;BME280;62385;41.594;23.808;2024-01-15T11:16:02;94790.63;;;3.18;57.93
24160;BME280;62385;41.594;23.808;2024-01-15T11:18:40;94774.59;;;3.21;58.23
24160;BME280;62385;41.594;23.808;2024-01-15T11:23:54;94782.78;;;3.45;56.58
24160;BME280;62385;41.594;23.808;2024-01-15T11:26:45;94768.94;;;3.53;57.20
24160;BME280;62385;41.594;23.808;2024-01-15T11:34:21;94747.34;;;3.32;56.82
24160;BME280;62385;41.594;23.808;2024-01-15T11:42:10;94758.97;;;3.84;56.53
24160;BME280;62385;41.594;23.808;2024-01-15T11:44:37;94751.09;;;3.84;56.31
24160;BME280;62385;41.594;23.808;2024-01-15T11:47:05;94735.47;;;3.82;56.56
24160;BME280;62385;41.594;23.808;2024-01-15T11:52:11;94740.63;;;3.74;57.40
24160;BME280;62385;41.594;23.808;2024-01-15T11:54:41;94741.06;;;3.69;57.07
24160;BME280;62385;41.594;23.808;2024-01-15T11:57:14;94712.06;;;3.44;56.58
24160;BME280;62385;41.594;23.808;2024-01-15T11:59:42;94722.22;;;3.56;57.01
24160;BME280;62385;41.594;23.808;2024-01-15T12:02:08;94720.00;;;3.61;56.80
24160;BME280;62385;41.594;23.808;2024-01-15T12:04:37;94699.31;;;3.58;56.90
24160;BME280;62385;41.594;23.808;2024-01-15T12:07:02;94694.88;;;3.59;55.33
24160;BME280;62385;41.594;23.808;2024-01-15T12:09:28;94672.13;;;3.32;56.31
24160;BME280;62385;41.594;23.808;2024-01-15T12:12:03;94699.00;;;3.61;56.24
24160;BME280;62385;41.594;23.808;2024-01-15T12:14:33;94702.06;;;3.57;53.66
24160;BME280;62385;41.594;23.808;2024-01-15T12:17:00;94679.38;;;3.48;53.94
24160;BME280;62385;41.594;23.808;2024-01-15T12:19:26;94676.34;;;3.60;55.56
24160;BME280;62385;41.594;23.808;2024-01-15T12:21:51;94658.09;;;3.68;54.16
24160;BME280;62385;41.594;23.808;2024-01-15T12:24:17;94706.50;;;3.74;54.37
24160;BME280;62385;41.594;23.808;2024-01-15T12:26:44;94675.09;;;3.82;53.10
24160;BME280;62385;41.594;23.808;2024-01-15T12:29:11;94704.66;;;3.84;53.29
24160;BME280;62385;41.594;23.808;2024-01-15T12:31:37;94663.91;;;3.62;54.62
24160;BME280;62385;41.594;23.808;2024-01-15T12:34:02;94698.25;;;3.51;52.81
24160;BME280;62385;41.594;23.808;2024-01-15T12:36:31;94681.53;;;3.70;50.49
24160;BME280;62385;41.594;23.808;2024-01-15T12:39:00;94676.81;;;3.73;51.69
24160;BME280;62385;41.594;23.808;2024-01-15T12:41:26;94671.19;;;3.51;53.47
24160;BME280;62385;41.594;23.808;2024-01-15T12:43:51;94683.78;;;3.65;54.40
24160;BME280;62385;41.594;23.808;2024-01-15T12:46:17;94699.50;;;3.92;53.99
24160;BME280;62385;41.594;23.808;2024-01-15T12:48:44;94693.56;;;3.90;52.18
24160;BME280;62385;41.594;23.808;2024-01-15T12:51:10;94662.63;;;3.49;53.43
24160;BME280;62385;41.594;23.808;2024-01-15T12:53:36;94689.94;;;3.56;53.93
24160;BME280;62385;41.594;23.808;2024-01-15T12:56:01;94658.50;;;3.46;55.42
24160;BME280;62385;41.594;23.808;2024-01-15T12:58:27;94642.69;;;3.38;54.14
24160;BME280;62385;41.594;23.808;2024-01-15T13:00:53;94660.59;;;3.15;54.10
24160;BME280;62385;41.594;23.808;2024-01-15T13:03:19;94653.00;;;3.22;55.82
24160;BME280;62385;41.594;23.808;2024-01-15T13:05:44;94670.44;;;3.13;55.74
24160;BME280;62385;41.594;23.808;2024-01-15T13:08:10;94664.72;;;2.91;55.89